Flugplatz Leverkusen

Für EDKL sind keine METAR/TAF Berichte vorhanden.
Es werden die Flugwettermeldungen vom Flugplatz Cologne Bonn in 19 km Entfernung angezeigt.

Bericht für EDDK

vom 31.05. um 08:50 UTC

Wind 7 kt aus 60°

Sichtweite 10 km oder mehr

gute Sicht, keine Wolken < 5000 ft, keine CB, keine Wettererscheinungen (CAVOK)

Temperatur 18.0°C

Taupunkt 3.0°C

Luftfeuchtigkeit 37%

Luftdruck 1022 hPa

keine wesentliche Wetteränderung innerhalb den nächsten 2 Stunden zu erwarten

EDDK 310850Z 06007KT 010V090 CAVOK 18/03 Q1022 NOSIG

Prognose für EDDK

vom 31.05. um 05:00 UTC

Zwischen 06:00 UTC und 07:00 UTC

Wind 4 kt aus 90°

Sichtweite 10 km oder mehr

keine signifikanten Wettererscheinungen

keine Wolken


Zwischen 07:00 und 10:00 UTC übergehend zu

Wind 10 kt aus 70°

Sichtweite 10 km oder mehr

keine signifikanten Wettererscheinungen

keine Wolken


Zwischen 17:00 und 20:00 UTC übergehend zu

Wind 4 kt aus 100°

Sichtweite 10 km oder mehr

keine signifikanten Wettererscheinungen

keine Wolken


Am 01.06. zwischen 09:00 und 12:00 UTC übergehend zu

Wind 9 kt aus 90°

Sichtweite 10 km oder mehr

keine signifikanten Wettererscheinungen

keine Wolken

TAF EDDK 310500Z 3106/0112 09004KT CAVOK BECMG 3107/3110 07010KT BECMG 3117/3120 10004KT BECMG 0109/0112 09009KT
Impressum